Time;durP1;ratioP1;P1;durP2;ratioP2;P2;SDS_P1;SDS_P2;PMS_P1;PMS_P2;Temp;Humidity;BMP_temperature;BMP_pressure;BME280_temperature;BME280_humidity;BME280_pressure;Samples;Min_cycle;Max_cycle;Signal;HPM_P1;HPM_P2
2022/05/28 00:00:22;;;;;;;11.52;3.30;;;;;;;11.88;84.51;101427.28;5020815;28;20037;-77
2022/05/28 00:02:48;;;;;;;15.65;4.38;;;;;;;11.84;85.42;101418.63;5037407;28;20044;-77
2022/05/28 00:05:14;;;;;;;16.95;4.57;;;;;;;11.81;84.59;101421.94;5036827;28;20025;-77
2022/05/28 00:07:40;;;;;;;11.95;3.88;;;;;;;11.80;84.74;101418.34;5040060;28;20108;-77
2022/05/28 00:10:06;;;;;;;14.82;3.92;;;;;;;11.77;85.38;101427.25;5020902;28;20037;-77
2022/05/28 00:12:32;;;;;;;13.10;3.88;;;;;;;11.75;85.05;101418.34;5036689;28;20051;-77
2022/05/28 00:14:57;;;;;;;12.20;4.07;;;;;;;11.77;84.94;101420.84;5069759;28;20026;-77
2022/05/28 00:17:23;;;;;;;12.98;3.90;;;;;;;11.68;84.43;101417.81;5038463;28;20155;-77
2022/05/28 00:19:49;;;;;;;11.10;3.53;;;;;;;11.75;84.27;101411.94;5037968;28;20037;-77
2022/05/28 00:22:15;;;;;;;11.27;3.55;;;;;;;11.71;84.24;101419.19;5020398;28;20079;-77
2022/05/28 00:24:40;;;;;;;13.40;3.80;;;;;;;11.63;84.65;101413.06;5020390;28;20034;-77
2022/05/28 00:27:06;;;;;;;11.20;3.53;;;;;;;11.60;84.80;101410.03;5020338;28;20028;-77
2022/05/28 00:29:31;;;;;;;14.85;4.22;;;;;;;11.59;84.44;101408.38;5036419;28;20033;-77
2022/05/28 00:31:57;;;;;;;11.65;3.70;;;;;;;11.58;84.89;101401.94;5037937;28;20037;-77
2022/05/28 00:34:22;;;;;;;11.35;3.60;;;;;;;11.56;84.48;101403.34;5037738;28;20083;-77
2022/05/28 00:36:48;;;;;;;13.85;4.05;;;;;;;11.54;84.94;101405.59;5038099;28;20025;-77
2022/05/28 00:39:13;;;;;;;12.40;3.70;;;;;;;11.47;84.57;101410.56;5036675;28;20029;-77
2022/05/28 00:41:39;;;;;;;11.00;3.50;;;;;;;11.47;85.09;101397.50;5036504;28;20505;-77
2022/05/28 00:44:05;;;;;;;9.50;3.50;;;;;;;11.40;85.11;101399.75;5036637;28;20034;-77
2022/05/28 00:46:30;;;;;;;10.70;3.38;;;;;;;11.44;84.71;101388.88;5015918;28;20100;-77
2022/05/28 00:48:58;;;;;;;8.45;3.42;;;;;;;11.41;84.76;101385.53;5036304;28;20091;-77
2022/05/28 00:51:27;;;;;;;12.73;4.00;;;;;;;11.33;84.80;101380.53;5020137;28;20433;-77
2022/05/28 00:53:54;;;;;;;14.60;3.95;;;;;;;11.32;84.62;101384.44;5034993;28;20083;-77
2022/05/28 00:56:22;;;;;;;11.38;3.80;;;;;;;11.23;84.92;101377.75;5036208;28;20029;-76
2022/05/28 00:58:48;;;;;;;11.95;3.28;;;;;;;11.21;84.99;101379.16;5020213;28;20037;-77
2022/05/28 01:01:14;;;;;;;13.40;3.17;;;;;;;11.19;84.89;101377.47;5036241;28;20087;-77
2022/05/28 01:04:06;;;;;;;11.43;3.55;;;;;;;11.17;84.95;101376.06;5036199;28;20034;-76
2022/05/28 01:07:00;;;;;;;12.98;3.85;;;;;;;11.07;84.93;101367.75;5036015;28;20071;-77
2022/05/28 01:09:29;;;;;;;16.83;3.90;;;;;;;11.08;85.49;101372.19;5036098;28;20412;-77
2022/05/28 01:12:04;;;;;;;9.98;3.10;;;;;;;11.08;84.98;101380.53;5035993;28;20057;-77
2022/05/28 01:14:52;;;;;;;15.55;3.80;;;;;;;11.03;85.30;101374.94;5034870;28;20037;-77
2022/05/28 01:17:23;;;;;;;14.85;4.38;;;;;;;10.98;85.42;101370.25;5024091;28;20464;-77
2022/05/28 01:20:04;;;;;;;11.48;3.78;;;;;;;10.95;85.30;101377.19;5015949;28;20026;-78
2022/05/28 01:22:57;;;;;;;16.17;3.45;;;;;;;10.95;85.06;101377.19;5020100;28;20108;-78
2022/05/28 01:25:37;;;;;;;10.90;3.78;;;;;;;10.89;85.11;101371.88;5019323;28;20389;-78
2022/05/28 01:28:12;;;;;;;11.80;3.58;;;;;;;10.89;84.71;101374.66;5018684;28;20088;-78
2022/05/28 01:30:38;;;;;;;12.43;3.30;;;;;;;10.88;84.33;101365.47;5038209;28;20037;-77
2022/05/28 01:33:04;;;;;;;12.65;3.55;;;;;;;10.85;84.99;101370.75;4986675;28;20041;-77
2022/05/28 01:35:29;;;;;;;9.02;3.10;;;;;;;10.80;84.71;101374.34;5002738;28;20034;-78
2022/05/28 01:37:55;;;;;;;8.32;3.30;;;;;;;10.77;84.69;101369.34;5019266;28;20033;-77
2022/05/28 01:40:20;;;;;;;7.97;2.92;;;;;;;10.78;84.15;101359.94;5002690;28;20033;-77
2022/05/28 01:42:49;;;;;;;11.00;3.05;;;;;;;10.74;84.06;101359.63;4986515;28;20753;-77
2022/05/28 01:45:15;;;;;;;9.32;3.40;;;;;;;10.72;84.07;101369.34;5019330;28;20057;-78
2022/05/28 01:47:43;;;;;;;10.35;3.40;;;;;;;10.69;83.82;101367.09;5035510;28;20427;-77
2022/05/28 01:50:09;;;;;;;9.43;3.25;;;;;;;10.63;83.93;101363.47;5019357;28;20033;-77
2022/05/28 01:52:34;;;;;;;7.47;2.53;;;;;;;10.56;84.18;101362.91;5035387;28;20032;-77
2022/05/28 01:55:00;;;;;;;14.02;3.25;;;;;;;10.50;84.17;101364.84;5036692;28;20036;-78
2022/05/28 01:57:25;;;;;;;9.55;3.08;;;;;;;10.52;83.93;101362.63;5018644;28;20025;-78
2022/05/28 01:59:51;;;;;;;8.13;2.85;;;;;;;10.51;83.72;101360.97;5018702;28;20425;-78
2022/05/28 02:02:16;;;;;;;8.77;3.17;;;;;;;10.45;83.59;101350.94;5035432;28;20037;-77
2022/05/28 02:04:46;;;;;;;13.95;3.40;;;;;;;10.40;83.69;101342.59;5002193;28;20025;-77
2022/05/28 02:07:11;;;;;;;10.23;3.22;;;;;;;10.39;83.59;101352.03;5019078;28;20099;-77
2022/05/28 02:09:45;;;;;;;6.90;2.85;;;;;;;10.38;83.75;101347.56;5018847;28;20041;-77
2022/05/28 02:12:33;;;;;;;9.63;2.80;;;;;;;10.34;83.99;101349.25;5018632;28;20056;-77
2022/05/28 02:15:19;;;;;;;10.27;3.10;;;;;;;10.26;83.98;101346.94;5029037;28;20040;-77
2022/05/28 02:17:53;;;;;;;6.40;3.13;;;;;;;10.20;84.20;101340.53;5033258;28;20029;-77
2022/05/28 02:20:42;;;;;;;11.98;3.20;;;;;;;10.19;84.27;101341.63;5034954;28;20502;-77
2022/05/28 02:23:14;;;;;;;9.65;2.72;;;;;;;10.14;84.13;101338.00;5032454;28;20050;-77
2022/05/28 02:26:04;;;;;;;10.82;3.17;;;;;;;10.10;84.29;101334.94;5018911;28;20033;-77
2022/05/28 02:28:30;;;;;;;8.00;2.85;;;;;;;10.06;84.14;101333.81;5032741;28;20046;-76
2022/05/28 02:31:02;;;;;;;8.63;2.88;;;;;;;10.05;84.18;101332.97;5037821;28;20029;-76
2022/05/28 02:33:31;;;;;;;10.88;3.20;;;;;;;9.94;84.32;101334.03;5035919;28;20033;-77
2022/05/28 02:35:56;;;;;;;6.93;3.20;;;;;;;9.93;84.50;101337.09;5018827;28;20175;-77
2022/05/28 02:38:22;;;;;;;8.23;3.35;;;;;;;9.90;84.40;101338.47;5018452;28;20034;-77
2022/05/28 02:40:47;;;;;;;9.05;3.22;;;;;;;9.89;84.23;101331.25;5017966;28;20037;-77
2022/05/28 02:43:13;;;;;;;8.85;3.58;;;;;;;9.84;84.67;101325.66;5034600;28;20028;-77
2022/05/28 02:45:39;;;;;;;11.25;3.63;;;;;;;9.82;84.82;101319.53;5030248;28;20032;-77
2022/05/28 02:48:05;;;;;;;12.70;4.20;;;;;;;9.81;84.96;101326.22;5001609;28;20033;-77
2022/05/28 02:50:30;;;;;;;11.13;3.33;;;;;;;9.77;84.91;101325.06;5048029;28;20075;-77
2022/05/28 02:52:56;;;;;;;10.50;3.65;;;;;;;9.76;85.13;101323.41;5034569;28;20103;-77
2022/05/28 02:55:22;;;;;;;9.55;3.63;;;;;;;9.79;84.51;101315.38;5034199;28;20026;-77
2022/05/28 02:57:48;;;;;;;8.25;3.25;;;;;;;9.73;85.03;101316.44;5017740;28;20036;-77
2022/05/28 03:00:14;;;;;;;5.90;3.25;;;;;;;9.72;85.21;101311.16;5033952;28;20025;-78
2022/05/28 03:02:41;;;;;;;6.75;3.28;;;;;;;9.63;85.53;101308.91;5001899;28;20057;-77
2022/05/28 03:05:07;;;;;;;8.57;3.55;;;;;;;9.63;85.45;101319.16;5017804;28;20108;-78
2022/05/28 03:07:32;;;;;;;8.55;4.00;;;;;;;9.65;85.68;101308.63;5017774;28;20035;-78
2022/05/28 03:09:58;;;;;;;8.27;3.53;;;;;;;9.59;86.23;101316.09;5035630;28;20025;-77
2022/05/28 03:12:23;;;;;;;6.68;3.30;;;;;;;9.55;86.05;101306.63;5014626;28;20042;-77
2022/05/28 03:14:49;;;;;;;8.15;3.38;;;;;;;9.54;86.04;101312.44;5031070;28;20030;-77
2022/05/28 03:17:14;;;;;;;10.35;3.60;;;;;;;9.55;86.13;101303.03;5034283;28;20498;-77
2022/05/28 03:19:40;;;;;;;7.00;3.42;;;;;;;9.53;85.94;101311.63;5035524;28;20041;-77
2022/05/28 03:22:05;;;;;;;8.15;3.13;;;;;;;9.49;85.73;101304.94;5034277;28;20505;-77
2022/05/28 03:24:31;;;;;;;4.55;2.63;;;;;;;9.47;85.61;101307.16;5035441;28;20033;-77
2022/05/28 03:26:57;;;;;;;4.30;2.40;;;;;;;9.48;85.46;101313.53;5034300;28;20061;-77
2022/05/28 03:29:24;;;;;;;4.70;2.30;;;;;;;9.44;85.89;101313.22;5039896;28;20034;-77
2022/05/28 03:31:50;;;;;;;4.15;2.22;;;;;;;9.47;85.10;101306.28;5038079;28;20033;-77
2022/05/28 03:34:15;;;;;;;4.60;2.35;;;;;;;9.43;85.26;101308.78;5039168;28;20044;-77
2022/05/28 03:36:41;;;;;;;5.22;2.17;;;;;;;9.39;85.28;101316.78;5021345;28;20041;-77
2022/05/28 03:39:06;;;;;;;4.13;2.33;;;;;;;9.36;85.20;101310.94;5021445;28;20090;-77
2022/05/28 03:41:32;;;;;;;4.47;1.95;;;;;;;9.36;84.91;101311.78;5021290;28;20030;-77
2022/05/28 03:43:58;;;;;;;4.65;2.60;;;;;;;9.32;84.88;101307.03;5038746;28;20099;-77
2022/05/28 03:46:29;;;;;;;3.88;2.47;;;;;;;9.29;85.06;101311.16;5037700;28;20034;-77
2022/05/28 03:48:57;;;;;;;3.17;2.22;;;;;;;9.28;84.85;101308.69;5039070;28;20481;-77
2022/05/28 03:51:23;;;;;;;5.35;2.78;;;;;;;9.23;84.96;101303.94;5008949;28;20040;-77
2022/05/28 03:53:49;;;;;;;7.53;2.63;;;;;;;9.22;84.78;101306.94;5037567;28;20033;-77
2022/05/28 03:56:14;;;;;;;4.28;2.20;;;;;;;9.20;84.72;101309.16;5037365;28;20039;-77
2022/05/28 03:58:40;;;;;;;5.95;2.50;;;;;;;9.17;84.77;101305.81;5020953;28;20046;-77
2022/05/28 04:01:05;;;;;;;6.90;2.50;;;;;;;9.18;84.43;101309.44;5038836;28;20378;-77
2022/05/28 04:03:31;;;;;;;4.85;2.50;;;;;;;9.13;84.33;101315.75;5038658;28;20526;-77
2022/05/28 04:05:57;;;;;;;4.72;2.20;;;;;;;9.12;84.65;101304.94;5037103;28;20030;-77
2022/05/28 04:08:22;;;;;;;5.70;2.45;;;;;;;9.09;84.32;101308.25;5020809;28;20025;-77
2022/05/28 04:10:48;;;;;;;6.68;2.15;;;;;;;9.07;84.38;101302.13;5036960;28;20037;-77
2022/05/28 04:13:13;;;;;;;4.70;2.45;;;;;;;9.01;84.64;101305.97;5020342;28;20038;-77
2022/05/28 04:15:39;;;;;;;5.75;2.40;;;;;;;9.00;84.73;101304.28;5036977;28;20028;-77
2022/05/28 04:18:07;;;;;;;6.20;2.50;;;;;;;8.97;84.67;101302.03;5037258;28;20037;-77
2022/05/28 04:20:33;;;;;;;4.68;2.35;;;;;;;8.95;84.86;101300.38;5021210;28;20108;-77
2022/05/28 04:22:59;;;;;;;4.82;2.15;;;;;;;8.94;84.76;101304.25;5037751;28;20470;-77
2022/05/28 04:25:24;;;;;;;6.07;2.20;;;;;;;8.97;84.48;101304.81;5004266;28;20048;-77
2022/05/28 04:27:50;;;;;;;5.78;2.67;;;;;;;8.94;84.67;101293.19;5037853;28;20038;-77
2022/05/28 04:30:16;;;;;;;3.90;2.33;;;;;;;8.94;84.39;101298.72;5034967;28;20025;-77
2022/05/28 04:32:41;;;;;;;5.65;2.90;;;;;;;8.92;85.03;101302.84;5022135;28;20037;-77
2022/05/28 04:35:08;;;;;;;3.22;2.33;;;;;;;8.91;85.21;101288.16;5037952;28;20033;-77
2022/05/28 04:37:33;;;;;;;5.50;2.40;;;;;;;8.90;85.36;101291.19;5020549;28;20067;-77
2022/05/28 04:39:59;;;;;;;7.35;2.60;;;;;;;8.93;85.75;101293.44;5036504;28;20037;-77
2022/05/28 04:42:24;;;;;;;6.85;2.75;;;;;;;8.94;86.21;101300.63;5036549;28;20030;-77
2022/05/28 04:44:50;;;;;;;4.50;3.05;;;;;;;8.98;87.72;101299.00;5020536;28;20056;-77
2022/05/28 04:47:15;;;;;;;6.13;2.70;;;;;;;9.02;89.00;101302.91;5018446;28;20041;-77
2022/05/28 04:49:41;;;;;;;5.20;2.65;;;;;;;9.07;87.96;101289.09;5019908;28;20022;-77
2022/05/28 04:52:07;;;;;;;4.95;3.25;;;;;;;9.16;88.78;101301.41;5020022;28;20036;-77
2022/05/28 04:54:32;;;;;;;6.68;2.78;;;;;;;9.25;88.65;101300.88;5020270;28;20040;-77
2022/05/28 04:56:58;;;;;;;6.40;2.83;;;;;;;9.34;90.26;101308.44;5036256;28;20029;-77
2022/05/28 04:59:23;;;;;;;10.48;3.45;;;;;;;9.46;95.86;101310.19;5019989;28;20026;-77
2022/05/28 05:01:48;;;;;;;7.45;3.60;;;;;;;9.57;96.20;101301.66;5036419;28;20549;-77
2022/05/28 05:04:14;;;;;;;11.20;3.92;;;;;;;9.73;97.57;101313.69;5003808;28;20450;-77
2022/05/28 05:06:39;;;;;;;6.00;2.80;;;;;;;9.86;93.14;101312.34;5019359;28;20026;-77
2022/05/28 05:09:05;;;;;;;5.95;2.55;;;;;;;10.00;91.52;101305.22;5037640;28;20045;-77
2022/05/28 05:11:30;;;;;;;7.18;3.28;;;;;;;10.17;90.38;101306.91;5069081;28;20025;-77
2022/05/28 05:13:56;;;;;;;5.53;2.53;;;;;;;10.31;88.62;101298.94;5035679;28;20045;-77
2022/05/28 05:16:21;;;;;;;4.53;2.05;;;;;;;10.46;88.13;101312.88;5019546;28;20038;-79
2022/05/28 05:18:47;;;;;;;8.15;2.60;;;;;;;10.63;88.06;101298.75;5037313;28;20114;-77
2022/05/28 05:21:12;;;;;;;7.57;2.50;;;;;;;10.80;86.11;101295.72;5035921;28;20101;-77
2022/05/28 05:23:39;;;;;;;5.50;2.63;;;;;;;10.97;86.19;101301.84;5003200;28;20025;-77
2022/05/28 05:26:11;;;;;;;10.38;2.90;;;;;;;11.14;85.19;101307.97;5035531;28;20393;-77
2022/05/28 05:28:36;;;;;;;7.55;2.78;;;;;;;11.32;85.33;101297.41;5018534;28;20473;-77
2022/05/28 05:31:02;;;;;;;7.22;2.70;;;;;;;11.49;85.05;101302.66;5034753;28;20025;-77
2022/05/28 05:33:27;;;;;;;5.47;2.72;;;;;;;11.68;86.64;101311.25;5036991;28;20030;-77
2022/05/28 05:35:52;;;;;;;7.70;2.40;;;;;;;11.82;84.74;101307.56;5018986;28;20602;-77
2022/05/28 05:38:18;;;;;;;8.85;2.60;;;;;;;12.00;85.01;101297.78;5035689;28;20029;-77
2022/05/28 05:40:44;;;;;;;8.57;3.20;;;;;;;12.18;84.12;101293.56;5017189;28;20041;-77
2022/05/28 05:43:09;;;;;;;10.65;3.00;;;;;;;12.35;85.55;101295.16;5035529;28;20378;-77
2022/05/28 05:45:35;;;;;;;9.52;2.47;;;;;;;12.52;83.46;101293.63;5035345;28;21114;-77
2022/05/28 05:48:01;;;;;;;8.05;2.50;;;;;;;12.71;83.21;101301.31;5018961;28;20394;-77
2022/05/28 05:50:26;;;;;;;9.82;2.88;;;;;;;12.89;83.87;101299.78;5018796;28;20025;-77
2022/05/28 05:52:52;;;;;;;11.93;3.10;;;;;;;13.06;85.12;101297.41;5035357;28;20108;-77
2022/05/28 05:55:17;;;;;;;10.82;2.92;;;;;;;13.21;82.99;101298.44;5035446;28;20492;-77
2022/05/28 05:57:43;;;;;;;14.90;3.60;;;;;;;13.37;84.58;101297.16;5018768;28;20057;-77
2022/05/28 06:00:09;;;;;;;10.70;3.67;;;;;;;13.52;83.06;101302.63;5036500;28;20049;-77
2022/05/28 06:02:34;;;;;;;14.63;3.80;;;;;;;13.63;84.13;101306.13;5035411;28;20104;-77
2022/05/28 06:05:00;;;;;;;13.13;3.40;;;;;;;13.78;83.76;101303.16;5034972;28;20036;-77
2022/05/28 06:07:25;;;;;;;14.93;4.13;;;;;;;13.90;83.96;101311.16;4999466;28;20028;-77
2022/05/28 06:09:51;;;;;;;15.10;4.28;;;;;;;14.00;85.14;101310.19;5031288;28;20061;-77
2022/05/28 06:12:17;;;;;;;14.45;4.30;;;;;;;14.14;84.10;101310.28;5034545;28;20042;-77
2022/05/28 06:14:42;;;;;;;14.77;3.88;;;;;;;14.31;84.47;101305.84;5035046;28;20044;-77
2022/05/28 06:17:08;;;;;;;10.15;2.72;;;;;;;14.51;81.27;101307.56;5018478;28;20040;-78
2022/05/28 06:19:34;;;;;;;18.42;4.05;;;;;;;14.65;83.57;101309.63;5036443;28;20433;-77
2022/05/28 06:21:59;;;;;;;21.00;4.38;;;;;;;14.79;82.15;101299.34;5036161;28;20036;-77
2022/05/28 06:24:25;;;;;;;14.07;3.80;;;;;;;14.97;81.86;101301.28;5036085;28;20049;-77
2022/05/28 06:26:51;;;;;;;15.18;3.88;;;;;;;15.11;79.63;101301.34;5035868;28;20040;-78
2022/05/28 06:29:17;;;;;;;17.05;4.03;;;;;;;15.26;79.24;101297.44;5032560;28;20394;-77
2022/05/28 06:31:42;;;;;;;14.00;4.05;;;;;;;15.44;79.44;101294.91;5034887;28;20056;-77
2022/05/28 06:34:08;;;;;;;16.20;4.43;;;;;;;15.56;78.36;101290.47;5038934;28;20029;-78
2022/05/28 06:36:33;;;;;;;17.25;4.32;;;;;;;15.77;78.64;101302.16;5037319;28;20033;-78
2022/05/28 06:38:59;;;;;;;16.02;4.47;;;;;;;15.92;77.38;101305.78;5034705;28;20041;-78
2022/05/28 06:41:24;;;;;;;22.20;4.05;;;;;;;15.96;76.49;101304.84;5035637;28;20083;-77
2022/05/28 06:43:51;;;;;;;15.77;4.00;;;;;;;16.11;75.32;101289.69;5035780;28;20017;-78
2022/05/28 06:46:17;;;;;;;15.88;4.10;;;;;;;16.22;75.28;101298.72;5016536;28;20106;-77
2022/05/28 06:48:42;;;;;;;12.98;3.55;;;;;;;16.26;74.31;101308.97;5033221;28;20069;-77
2022/05/28 06:51:08;;;;;;;17.52;4.72;;;;;;;16.33;73.84;101299.34;5018097;28;20039;-77
2022/05/28 06:53:42;;;;;;;15.10;4.10;;;;;;;16.47;73.84;101297.34;5035392;28;20516;-78
2022/05/28 06:56:08;;;;;;;24.88;4.00;;;;;;;16.51;73.19;101295.53;5018163;28;20065;-78
2022/05/28 06:58:34;;;;;;;23.98;4.90;;;;;;;16.63;73.00;101304.25;5012423;28;20052;-78
2022/05/28 07:01:00;;;;;;;16.30;3.60;;;;;;;16.85;72.68;101303.47;5013246;28;20034;-77
2022/05/28 07:03:26;;;;;;;13.80;4.00;;;;;;;16.92;72.24;101297.44;5027158;28;20034;-78
2022/05/28 07:05:52;;;;;;;21.45;4.80;;;;;;;17.03;72.68;101296.03;5017586;28;20037;-78
2022/05/28 07:08:18;;;;;;;15.98;4.45;;;;;;;17.10;71.37;101289.97;5014635;28;20047;-77
2022/05/28 07:10:48;;;;;;;20.27;4.50;;;;;;;17.15;71.37;101285.03;5019064;28;20864;-77
2022/05/28 07:13:14;;;;;;;18.77;4.60;;;;;;;17.31;71.23;101301.50;5036662;28;20441;-77
2022/05/28 07:15:39;;;;;;;17.77;4.25;;;;;;;17.41;70.99;101298.41;5035092;28;20045;-76
2022/05/28 07:18:05;;;;;;;16.48;5.00;;;;;;;17.38;70.57;101304.66;5021443;28;20053;-77
2022/05/28 07:20:31;;;;;;;15.60;3.90;;;;;;;17.56;70.14;101300.81;5039298;28;20486;-77
2022/05/28 07:22:56;;;;;;;16.73;3.97;;;;;;;17.73;70.83;101290.84;5038115;28;20070;-77
2022/05/28 07:25:23;;;;;;;16.58;4.45;;;;;;;17.77;69.54;101289.84;5038104;28;20030;-77
2022/05/28 07:27:48;;;;;;;14.98;4.10;;;;;;;17.92;69.88;101290.63;5039067;28;20447;-77
2022/05/28 07:30:14;;;;;;;18.67;4.60;;;;;;;17.94;68.71;101286.31;5038939;28;20029;-77
2022/05/28 07:32:40;;;;;;;13.85;4.43;;;;;;;18.05;68.36;101289.66;5037469;28;20429;-77
2022/05/28 07:35:06;;;;;;;17.67;4.10;;;;;;;18.07;67.61;101281.72;5038043;28;20116;-77
2022/05/28 07:37:34;;;;;;;14.00;4.07;;;;;;;18.27;66.75;101280.28;5038058;28;20041;-77
2022/05/28 07:39:59;;;;;;;17.73;4.20;;;;;;;18.43;66.93;101280.66;5039114;28;20369;-77
2022/05/28 07:42:26;;;;;;;18.15;3.92;;;;;;;18.52;65.85;101279.50;5037535;28;20025;-73
2022/05/28 07:44:52;;;;;;;18.92;4.20;;;;;;;18.65;66.28;101279.69;5038655;28;20033;-74
2022/05/28 07:47:18;;;;;;;18.48;4.32;;;;;;;18.71;65.77;101284.81;5038755;28;20037;-74
2022/05/28 07:49:44;;;;;;;19.55;4.60;;;;;;;18.81;65.08;101283.69;5038917;28;20025;-75
2022/05/28 07:52:10;;;;;;;17.45;4.03;;;;;;;18.98;65.16;101280.03;5021087;28;20055;-74
2022/05/28 07:54:35;;;;;;;17.00;4.70;;;;;;;18.97;64.25;101284.84;5037524;28;20453;-73
2022/05/28 07:57:01;;;;;;;15.95;4.30;;;;;;;18.99;64.19;101278.88;5020829;28;20070;-73
2022/05/28 07:59:26;;;;;;;15.63;3.78;;;;;;;19.19;64.32;101289.47;5022808;28;20032;-73
2022/05/28 08:01:52;;;;;;;12.75;3.63;;;;;;;19.28;63.32;101275.38;5033669;28;20041;-74
2022/05/28 08:04:17;;;;;;;19.67;4.60;;;;;;;19.30;63.00;101284.28;5020919;28;20034;-74
2022/05/28 08:06:43;;;;;;;14.07;3.92;;;;;;;19.36;62.65;101282.97;5038342;28;20391;-74
2022/05/28 08:09:10;;;;;;;11.55;4.15;;;;;;;19.43;62.26;101277.63;5004767;28;20040;-74
2022/05/28 08:11:35;;;;;;;12.02;3.97;;;;;;;19.52;61.37;101277.59;5004262;28;20395;-73
2022/05/28 08:14:01;;;;;;;16.02;4.80;;;;;;;19.52;61.42;101274.78;5036497;28;20041;-74
2022/05/28 08:16:26;;;;;;;20.98;4.30;;;;;;;19.71;61.99;101282.88;5002016;28;20026;-74
2022/05/28 08:18:52;;;;;;;16.00;4.00;;;;;;;19.68;59.82;101280.75;5004499;28;20033;-74
2022/05/28 08:24:02;;;;;;;15.98;4.75;;;;;;;19.83;59.89;101282.16;5019182;28;20025;-74
2022/05/28 08:26:28;;;;;;;16.95;3.97;;;;;;;19.98;58.99;101284.44;5004208;28;20033;-73
2022/05/28 08:28:53;;;;;;;18.38;4.28;;;;;;;19.97;59.00;101285.56;4987106;28;20421;-74
2022/05/28 08:31:19;;;;;;;15.50;4.15;;;;;;;20.06;58.50;101288.38;5019878;28;20084;-74
2022/05/28 08:33:45;;;;;;;14.45;4.15;;;;;;;20.09;58.41;101284.88;4987314;28;20033;-74
2022/05/28 08:36:11;;;;;;;17.40;4.18;;;;;;;20.27;58.99;101283.59;4987488;28;20036;-74
2022/05/28 08:38:37;;;;;;;13.02;3.72;;;;;;;20.21;56.37;101276.50;5004171;28;20028;-74
2022/05/28 08:41:06;;;;;;;13.80;4.25;;;;;;;20.33;55.82;101269.28;5003789;28;20033;-77
2022/05/28 08:43:36;;;;;;;13.73;3.67;;;;;;;20.46;57.24;101271.84;5036777;28;20061;-76
2022/05/28 08:46:02;;;;;;;12.95;3.83;;;;;;;20.57;56.18;101269.47;5036996;28;20022;-76
2022/05/28 08:48:38;;;;;;;13.18;3.25;;;;;;;20.78;56.52;101269.47;4989092;28;20739;-74
2022/05/28 08:51:25;;;;;;;16.60;4.32;;;;;;;20.81;56.03;101268.81;4988827;28;20060;-76
2022/05/28 08:54:00;;;;;;;12.30;4.03;;;;;;;20.97;54.92;101254.84;5015313;28;20061;-75
2022/05/28 08:56:26;;;;;;;14.90;3.63;;;;;;;21.07;55.34;101245.97;5019925;28;20083;-74
2022/05/28 08:59:07;;;;;;;17.88;3.65;;;;;;;21.14;53.12;101253.84;5002058;28;20056;-76
2022/05/28 09:01:33;;;;;;;11.43;3.17;;;;;;;21.29;53.64;101249.56;5018638;28;20045;-74
2022/05/28 09:04:04;;;;;;;16.95;3.55;;;;;;;21.37;52.33;101243.84;5036545;28;20034;-76
2022/05/28 09:06:38;;;;;;;14.50;3.38;;;;;;;21.45;51.94;101244.91;4984241;28;20030;-76
2022/05/28 09:09:04;;;;;;;12.77;3.20;;;;;;;21.45;50.89;101241.25;5004463;28;20026;-72
2022/05/28 09:11:38;;;;;;;16.35;3.22;;;;;;;21.50;50.49;101239.03;4987120;28;20121;-73
2022/05/28 09:14:25;;;;;;;17.83;3.70;;;;;;;21.46;50.36;101243.75;5037064;28;20067;-75
2022/05/28 09:16:53;;;;;;;14.48;3.30;;;;;;;21.55;49.86;101240.81;5035842;28;20037;-75
2022/05/28 09:19:24;;;;;;;14.27;3.30;;;;;;;21.71;49.10;101232.47;5035876;28;20057;-74
2022/05/28 09:21:52;;;;;;;12.23;3.28;;;;;;;21.91;49.14;101231.53;5015683;28;20026;-76
2022/05/28 09:24:18;;;;;;;12.70;3.13;;;;;;;21.91;49.07;101236.34;5037172;28;20029;-75
2022/05/28 09:27:05;;;;;;;15.45;3.13;;;;;;;22.02;49.01;101232.69;5035410;28;20434;-76
2022/05/28 09:29:56;;;;;;;14.00;2.45;;;;;;;22.13;48.06;101224.56;5033797;28;20029;-76
2022/05/28 09:32:58;;;;;;;13.43;2.97;;;;;;;22.35;47.64;101233.75;5003648;28;20032;-75
2022/05/28 09:35:55;;;;;;;12.30;2.53;;;;;;;22.47;47.76;101225.22;5035318;28;20046;-76
2022/05/28 09:38:39;;;;;;;12.05;2.80;;;;;;;22.49;47.83;101222.88;5033503;28;20636;-76
2022/05/28 09:41:04;;;;;;;10.05;2.90;;;;;;;22.38;47.25;101228.19;5031785;28;20022;-75
2022/05/28 09:43:48;;;;;;;10.57;2.53;;;;;;;22.55;46.07;101220.59;5035508;28;20040;-75
2022/05/28 09:46:21;;;;;;;11.65;2.60;;;;;;;22.67;47.64;101220.56;5035224;28;20021;-75
2022/05/28 09:49:01;;;;;;;11.98;3.00;;;;;;;22.81;47.17;101220.97;5035417;28;20394;-75
2022/05/28 09:51:29;;;;;;;10.48;2.58;;;;;;;22.88;47.53;101214.69;5035619;28;20521;-75
2022/05/28 09:54:17;;;;;;;12.60;2.92;;;;;;;23.04;46.34;101203.44;4998589;28;20084;-75
2022/05/28 09:57:09;;;;;;;10.77;2.90;;;;;;;23.19;46.50;101209.13;5020375;28;20033;-75
2022/05/28 09:59:43;;;;;;;12.57;3.35;;;;;;;23.20;45.97;101201.44;5013823;28;20045;-75
2022/05/28 10:02:32;;;;;;;13.00;2.95;;;;;;;23.34;46.72;101195.34;5032274;28;20072;-76
2022/05/28 10:05:16;;;;;;;14.18;2.42;;;;;;;23.51;46.11;101188.47;5033598;28;20042;-76
2022/05/28 10:07:46;;;;;;;10.35;2.72;;;;;;;23.61;44.90;101204.94;5004233;28;20057;-75
2022/05/28 10:10:29;;;;;;;9.30;2.50;;;;;;;23.49;43.95;101202.22;5014802;28;20036;-75
2022/05/28 10:13:24;;;;;;;7.97;2.63;;;;;;;23.41;44.17;101196.34;5036079;28;20056;-75
2022/05/28 10:15:56;;;;;;;15.57;3.10;;;;;;;23.47;44.99;101210.25;5026610;28;20486;-75
2022/05/28 10:18:25;;;;;;;12.50;2.83;;;;;;;23.50;43.89;101198.19;5036563;28;20625;-75
2022/05/28 10:21:18;;;;;;;9.70;2.95;;;;;;;23.55;44.06;101190.22;5002402;28;20059;-75
2022/05/28 10:23:49;;;;;;;9.27;2.70;;;;;;;23.37;43.65;101194.59;5017259;28;20041;-75
2022/05/28 10:26:18;;;;;;;12.18;2.58;;;;;;;23.40;45.44;101188.19;5035881;28;20048;-75
2022/05/28 10:28:51;;;;;;;11.88;2.55;;;;;;;23.51;44.59;101174.31;5032832;28;20049;-76
2022/05/28 10:31:27;;;;;;;9.82;2.50;;;;;;;23.66;44.30;101178.34;5034974;28;20393;-75
2022/05/28 10:33:53;;;;;;;18.00;2.95;;;;;;;23.74;44.51;101181.00;5035924;28;20394;-76
2022/05/28 10:36:27;;;;;;;10.57;2.30;;;;;;;23.84;43.94;101183.25;5035845;28;20041;-75
2022/05/28 10:38:52;;;;;;;12.10;2.55;;;;;;;23.92;43.18;101180.63;5032853;28;20029;-75
2022/05/28 10:41:25;;;;;;;8.82;2.60;;;;;;;23.93;43.32;101174.59;5001452;28;20725;-75
2022/05/28 10:43:50;;;;;;;15.00;2.97;;;;;;;24.04;43.52;101171.97;5035682;28;20021;-75
2022/05/28 10:46:34;;;;;;;12.00;2.63;;;;;;;24.05;43.22;101162.28;5035815;28;20040;-76
2022/05/28 10:49:02;;;;;;;8.90;2.28;;;;;;;24.29;42.27;101162.03;5034072;28;20398;-75
2022/05/28 10:52:06;;;;;;;9.85;2.22;;;;;;;24.27;42.46;101164.41;5035454;28;20040;-76
2022/05/28 10:54:34;;;;;;;12.02;2.67;;;;;;;24.38;42.54;101166.66;5031562;28;20033;-75
2022/05/28 10:57:03;;;;;;;8.77;2.20;;;;;;;24.44;40.25;101168.03;5035474;28;20030;-75
2022/05/28 10:59:38;;;;;;;9.63;2.20;;;;;;;24.37;41.00;101162.16;5035533;28;20043;-75
2022/05/28 11:02:15;;;;;;;6.70;1.65;;;;;;;24.39;40.85;101162.63;5035797;28;20493;-75
2022/05/28 11:04:49;;;;;;;6.65;1.90;;;;;;;24.48;39.17;101160.41;5034247;28;20048;-75
2022/05/28 11:07:39;;;;;;;9.20;2.35;;;;;;;24.47;39.25;101167.28;5018016;28;20062;-75
2022/05/28 11:10:35;;;;;;;9.52;2.03;;;;;;;24.36;39.40;101160.53;5033339;28;20033;-75
2022/05/28 11:13:23;;;;;;;7.60;1.90;;;;;;;24.23;39.69;101154.97;5019632;28;20046;-75
2022/05/28 11:16:03;;;;;;;9.63;2.10;;;;;;;24.42;38.87;101157.00;5033705;28;20163;-76
2022/05/28 11:18:32;;;;;;;10.15;2.20;;;;;;;24.42;39.75;101156.19;5030609;28;20056;-75
2022/05/28 11:21:00;;;;;;;9.55;1.70;;;;;;;24.47;39.29;101144.59;5035632;28;20037;-75
2022/05/28 11:23:30;;;;;;;7.25;2.00;;;;;;;24.46;39.12;101148.59;5035534;28;20038;-75
2022/05/28 11:26:14;;;;;;;8.85;1.80;;;;;;;24.54;40.26;101150.38;5033915;28;20029;-75
2022/05/28 11:28:42;;;;;;;10.80;2.35;;;;;;;24.68;39.43;101139.34;5030688;28;20030;-75
2022/05/28 11:31:19;;;;;;;13.15;2.28;;;;;;;24.63;39.60;101131.13;5033992;28;20033;-75
2022/05/28 11:33:46;;;;;;;10.57;2.20;;;;;;;24.73;39.95;101133.34;5014435;28;20038;-75